Latest Weather Observations for Redcliffe

IDQ60901

Issued at 9:31 am EST Wednesday 22 September 2021 (issued every 10 minutes, with the page automatically refreshed every 10 minutes)

About weather observations | Map of Brisbane area stations | Latest observations for Brisbane area | Other Formats
Station Details ID: 040958 Name: REDCLIFFE Lat: -27.22 Lon: 153.09 Height: 12.6 m
Data from the previous 72 hours. | See also: Recent months at Redcliffe
Date/Time
EST
Temp
°C
App
Temp
°C
Dew
Point
°C
Rel
Hum
%
Delta-T
°C
Wind Press
QNH
hPa
Press
MSL
hPa
Rain since
9am
mm
Dir  Spd
km/h
Gust
km/h
Spd
kts
Gust
kts
22/09:30am 18.9 13.3 3.5 36 7.2 SSW 22 33 12 18 1021.3 1021.3 0.0
22/09:00am 17.7 11.2 2.5 36 6.9 SSW 26 39 14 21 1021.2 1021.2 0.0
22/08:30am 17.0 10.4 1.8 36 6.8 SSW 26 37 14 20 1020.8 1020.8 0.0
22/08:00am 16.1 10.0 2.9 41 6.0 SSW 24 41 13 22 1020.7 1020.7 0.0
22/07:30am 14.6 9.7 2.2 43 5.5 SW 17 24 9 13 1020.4 1020.4 0.0
22/07:00am 13.0 7.6 2.3 48 4.6 SW 20 28 11 15 1019.9 1019.8 0.0
22/06:30am 11.2 7.0 1.5 51 4.1 WSW 13 19 7 10 1019.9 1019.8 0.0
22/06:00am 10.0 5.3 1.1 54 3.7 WSW 15 19 8 10 1019.7 1019.6 0.0
22/05:30am 10.0 5.7 0.9 53 3.7 WSW 13 17 7 9 1019.4 1019.3 0.0
22/05:00am 9.9 5.5 0.3 51 3.9 W 13 15 7 8 1018.8 1018.7 0.0
22/04:30am 10.3 6.2 0.1 49 4.1 WSW 11 17 6 9 1018.5 1018.4 0.0
22/04:00am 10.4 5.9 -0.1 48 4.2 WSW 13 17 7 9 1018.2 1018.1 0.0
22/03:30am 10.4 5.9 -0.4 47 4.3 WSW 13 17 7 9 1017.8 1017.7 0.0
22/03:00am 10.8 5.5 -0.6 45 4.5 SW 17 24 9 13 1017.9 1017.8 0.0
22/02:30am 10.8 5.5 -0.6 45 4.6 WSW 17 20 9 11 1018.1 1018.0 0.0
22/02:00am 11.0 6.0 -1.1 43 4.8 WSW 15 22 8 12 1018.5 1018.4 0.0
22/01:30am 11.3 5.6 -1.1 42 4.9 WSW 19 24 10 13 1018.6 1018.5 0.0
22/01:00am 11.4 6.4 -1.4 41 5.0 WSW 15 20 8 11 1018.7 1018.6 0.0
22/12:30am 11.7 5.9 -1.4 40 5.2 SW 19 30 10 16 1018.8 1018.7 0.0
22/12:00am 12.0 6.0 -1.5 39 5.3 SW 20 30 11 16 1018.8 1018.7 0.0
 
Date/Time
EST
Temp
°C
App
Temp
°C
Dew
Point
°C
Rel
Hum
%
Delta-T
°C
Wind Press
QNH
hPa
Press
MSL
hPa
Rain since
9am
mm
Dir  Spd
km/h
Gust
km/h
Spd
kts
Gust
kts
21/11:30pm 12.2 6.2 -1.7 38 5.5 WSW 20 28 11 15 1018.8 1018.7 0.0
21/11:00pm 12.6 5.8 -2.1 36 5.8 SW 24 35 13 19 1018.8 1018.7 0.0
21/10:30pm 12.8 6.0 -1.5 37 5.7 SW 24 32 13 17 1018.7 1018.6 0.0
21/10:00pm 12.8 6.8 -1.9 36 5.8 SW 20 30 11 16 1018.6 1018.5 0.0
21/09:30pm 13.2 7.7 -2.3 34 6.1 SW 17 24 9 13 1018.4 1018.3 0.0
21/09:00pm 13.5 7.6 -2.4 33 6.3 WSW 19 28 10 15 1018.2 1018.1 0.0
21/08:30pm 13.7 7.5 -3.1 31 6.5 WSW 20 28 11 15 1018.0 1017.9 0.0
21/08:00pm 14.3 7.3 -3.9 28 7.0 WSW 24 37 13 20 1017.4 1017.3 0.0
21/07:30pm 14.4 8.3 -4.3 27 7.1 WSW 19 28 10 15 1016.9 1016.8 0.0
21/07:00pm 14.8 8.4 -4.5 26 7.4 WSW 20 32 11 17 1016.5 1016.4 0.0
21/06:30pm 15.4 8.2 -5.0 24 7.8 WSW 24 39 13 21 1015.9 1015.8 0.0
21/06:00pm 15.8 7.5 -5.3 23 8.0 WSW 30 50 16 27 1015.3 1015.2 0.0
21/05:30pm 16.1 7.8 -5.0 23 8.1 WSW 30 50 16 27 1015.0 1014.9 0.0
21/05:00pm 17.3 8.5 -4.0 23 8.4 SW 33 56 18 30 1014.5 1014.4 0.0
21/04:30pm 17.6 8.8 -4.3 22 8.7 WSW 33 59 18 32 1013.7 1013.6 0.0
21/04:00pm 19.2 9.6 -5.0 19 9.6 W 37 59 20 32 1013.1 1013.0 0.0
21/03:30pm 19.4 9.2 -3.5 21 9.4 WSW 41 65 22 35 1012.8 1012.7 0.0
21/03:00pm 20.4 10.6 -3.3 20 9.8 W 39 57 21 31 1012.4 1012.3 0.0
21/02:46pm 19.7 9.7 -2.0 23 9.2 WSW 41 59 22 32 1012.3 1012.2 0.0
21/02:39pm 20.4 11.1 -2.0 22 9.5 WSW 37 57 20 31 1012.3 1012.2 0.0
21/02:30pm 20.5 11.6 -1.9 22 9.6 W 35 56 19 30 1012.2 1012.1 0.0
21/02:00pm 21.3 12.7 -2.5 20 10.1 WSW 33 52 18 28 1011.8 1011.7 0.0
21/01:57pm 21.8 13.3 -1.5 21 10.1 WSW 33 52 18 28 1011.7 1011.6 0.0
21/01:30pm 22.0 13.6 -0.7 22 10.1 WSW 33 50 18 27 1011.7 1011.6 0.0
21/01:00pm 22.2 13.6 0.1 23 10.0 WSW 35 54 19 29 1011.9 1011.8 0.0
21/12:42pm 22.3 13.7 0.2 23 10.0 WSW 35 54 19 29 1011.8 1011.7 0.0
21/12:30pm 22.8 14.6 0.6 23 10.2 WSW 33 50 18 27 1011.6 1011.5 0.0
21/12:00pm 22.4 14.0 1.4 25 9.7 WSW 35 54 19 29 1011.7 1011.6 0.0
21/11:33am 24.0 16.4 3.9 27 9.9 WSW 33 52 18 28 1012.0 1011.9 0.0
21/11:30am 23.2 15.0 2.7 26 9.8 WSW 35 52 19 28 1011.9 1011.8 0.0
21/11:00am 23.0 15.2 3.0 27 9.6 WSW 33 59 18 32 1012.1 1012.0 0.0
21/10:33am 23.7 16.8 4.6 29 9.5 WSW 30 50 16 27 1012.4 1012.3 0.0
21/10:30am 23.3 16.6 3.8 28 9.5 WSW 28 41 15 22 1012.4 1012.3 0.0
21/10:00am 22.9 17.3 5.3 32 8.8 WSW 24 37 13 20 1012.8 1012.7 0.0
21/09:50am 23.9 17.1 6.7 33 8.9 W 32 50 17 27 1012.7 1012.6 0.0
21/09:30am 24.3 19.0 5.1 29 9.7 W 22 35 12 19 1012.1 1012.0 0.0
21/09:00am 23.2 18.9 5.2 31 9.0 W 17 30 9 16 1012.0 1011.9 0.0
21/08:30am 23.4 18.1 4.9 30 9.2 W 22 33 12 18 1011.6 1011.5 0.0
21/08:00am 23.9 19.2 6.2 32 9.1 W 20 33 11 18 1011.5 1011.4 0.0
21/07:30am 22.4 18.1 7.8 39 7.6 W 20 32 11 17 1011.4 1011.3 0.0
21/07:00am 20.9 18.7 10.7 52 5.6 WNW 13 19 7 10 1011.0 1010.9 0.0
21/06:30am 20.5 18.5 12.7 61 4.4 WNW 15 19 8 10 1010.7 1010.6 0.0
21/06:00am 20.6 18.9 12.6 60 4.5 WNW 13 19 7 10 1010.1 1010.0 0.0
21/05:30am 20.7 19.2 13.2 62 4.3 NNW 13 20 7 11 1009.9 1009.8 0.0
21/05:00am 20.2 18.7 14.3 69 3.4 NNW 15 20 8 11 1009.7 1009.6 0.0
21/04:30am 20.0 19.5 15.0 73 2.9 NNW 11 15 6 8 1009.6 1009.5 0.0
21/04:00am 19.4 18.7 15.3 77 2.4 NNW 13 19 7 10 1009.7 1009.6 0.0
21/03:30am 19.9 19.5 15.3 75 2.7 NNW 11 17 6 9 1010.1 1010.0 0.0
21/03:00am 20.0 18.5 15.4 75 2.7 N 17 24 9 13 1010.0 1009.9 0.0
21/02:30am 20.4 17.2 15.4 73 3.0 N 26 32 14 17 1010.4 1010.3 0.0
21/02:00am 20.7 17.6 15.5 72 3.1 N 26 32 14 17 1010.7 1010.6 0.0
21/01:30am 20.5 16.8 15.1 71 3.2 N 28 33 15 18 1011.4 1011.3 0.0
21/01:00am 20.9 18.0 15.0 69 3.5 N 24 32 13 17 1012.2 1012.1 0.0
21/12:30am 21.2 18.1 14.4 65 4.0 N 24 28 13 15 1012.4 1012.3 0.0
21/12:00am 21.2 19.1 14.8 67 3.8 N 19 26 10 14 1013.1 1013.0 0.0
 
Date/Time
EST
Temp
°C
App
Temp
°C
Dew
Point
°C
Rel
Hum
%
Delta-T
°C
Wind Press
QNH
hPa
Press
MSL
hPa
Rain since
9am
mm
Dir  Spd
km/h
Gust
km/h
Spd
kts
Gust
kts
20/11:30pm 21.0 18.9 15.1 69 3.5 N 20 24 11 13 1013.5 1013.4 0.0
20/11:00pm 20.9 18.8 14.8 68 3.6 N 19 22 10 12 1013.8 1013.7 0.0
20/10:30pm 21.4 20.5 14.8 66 3.9 N 13 19 7 10 1014.2 1014.1 0.0
20/10:00pm 21.4 19.8 15.0 67 3.8 N 17 20 9 11 1014.0 1013.9 0.0
20/09:30pm 21.4 20.7 15.5 69 3.5 N 13 15 7 8 1014.5 1014.4 0.0
20/09:00pm 21.9 20.7 16.0 69 3.6 N 17 22 9 12 1014.7 1014.6 0.0
20/08:30pm 21.9 19.9 16.4 71 3.3 N 22 32 12 17 1014.1 1014.0 0.0
20/08:00pm 21.8 18.8 17.8 78 2.5 N 30 33 16 18 1013.8 1013.7 0.0
20/07:30pm 21.6 18.9 18.4 82 2.0 N 30 39 16 21 1013.9 1013.8 0.0
20/07:00pm 21.5 17.4 18.3 82 2.0 N 37 48 20 26 1013.5 1013.4 0.0
20/06:30pm 21.5 16.4 18.5 83 1.9 N 43 50 23 27 1013.5 1013.4 0.0
20/06:00pm 21.6 16.2 18.4 82 2.0 NNE 44 52 24 28 1013.4 1013.3 0.0
20/05:30pm 21.7 15.8 18.1 80 2.2 NNE 46 56 25 30 1013.2 1013.1 0.0
20/05:00pm 22.2 16.0 18.2 78 2.5 NNE 48 56 26 30 1013.2 1013.1 0.0
20/04:30pm 22.5 16.9 17.8 75 2.9 NNE 44 52 24 28 1013.2 1013.1 0.0
20/04:00pm 23.0 17.8 18.3 75 2.9 NNE 43 52 23 28 1013.3 1013.2 0.0
20/03:30pm 23.1 18.1 18.0 73 3.2 NNE 41 48 22 26 1013.5 1013.4 0.0
20/03:00pm 23.6 19.4 18.0 71 3.5 NNE 37 46 20 25 1013.8 1013.7 0.0
20/02:30pm 24.1 20.1 17.6 67 4.1 NNE 35 41 19 22 1014.1 1014.0 0.0
20/02:00pm 23.7 18.8 17.4 68 3.9 NNE 39 44 21 24 1014.6 1014.5 0.0
20/01:30pm 24.0 19.8 18.0 69 3.8 NNE 37 43 20 23 1015.2 1015.1 0.0
20/01:00pm 24.0 19.6 17.5 67 4.0 NNE 37 43 20 23 1015.9 1015.8 0.0
20/12:30pm 24.5 20.3 17.2 63 4.5 NNE 35 41 19 22 1016.4 1016.3 0.0
20/12:00pm 24.9 21.4 17.4 63 4.7 NE 32 35 17 19 1017.4 1017.3 0.0
20/11:30am 24.0 20.4 16.3 62 4.7 NE 30 33 16 18 1018.5 1018.4 0.0
20/11:00am 24.3 20.5 15.8 59 5.1 NE 30 33 16 18 1019.2 1019.1 0.0
20/10:30am 24.0 22.5 15.2 58 5.3 NNE 17 20 9 11 1019.9 1019.8 0.0
20/10:00am 23.8 22.5 14.8 57 5.3 NE 15 17 8 9 1020.3 1020.3 0.0
20/09:30am 23.3 22.8 16.8 67 4.0 NNE 15 17 8 9 1020.7 1020.7 0.0
20/09:00am 21.5 20.3 16.2 72 3.2 NNE 17 20 9 11 1021.0 1021.0 0.0
20/08:30am 20.6 20.4 15.8 74 2.9 N 11 15 6 8 1021.3 1021.3 0.0
20/08:00am 19.4 19.0 15.3 77 2.4 NW 11 15 6 8 1021.6 1021.6 0.0
20/07:30am 18.0 17.9 16.0 88 1.2 W 11 15 6 8 1021.5 1021.5 0.0
20/07:00am 18.0 18.4 16.2 89 1.1 NW 9 11 5 6 1021.1 1021.1 0.0
20/06:30am 17.6 16.9 16.5 93 0.7 N 15 17 8 9 1020.5 1020.5 0.0
20/06:00am 16.1 16.9 15.8 98 0.2 NNW 6 9 3 5 1020.5 1020.5 0.0
20/05:30am 15.8 16.2 15.3 97 0.3 NNW 7 9 4 5 1020.6 1020.6 0.0
20/05:00am 16.5 18.1 15.9 96 0.4 NW 2 7 1 4 1020.3 1020.3 0.0
20/04:30am 17.1 17.5 16.3 95 0.5 NNW 9 13 5 7 1020.1 1020.1 0.0
20/04:00am 17.1 17.5 16.3 95 0.5 NW 9 11 5 6 1019.9 1019.8 0.0
20/03:30am 17.2 17.2 16.2 94 0.6 NW 11 15 6 8 1020.0 1019.9 0.0
20/03:00am 17.9 18.1 16.8 93 0.7 NNW 11 13 6 7 1019.9 1019.8 0.0
20/02:30am 18.2 18.8 16.9 92 0.8 NNW 9 11 5 6 1020.1 1020.1 0.0
20/02:00am 18.5 19.2 17.0 91 0.9 NNW 9 15 5 8 1020.2 1020.2 0.0
20/01:30am 18.8 19.1 16.9 89 1.1 N 11 15 6 8 1020.5 1020.5 0.0
20/01:00am 19.4 19.3 17.0 86 1.5 N 13 17 7 9 1020.7 1020.7 0.0
20/12:30am 19.8 20.2 17.2 85 1.6 N 11 17 6 9 1021.0 1021.0 0.0
20/12:00am 19.8 20.2 17.2 85 1.6 N 11 15 6 8 1021.1 1021.1 0.0
 
Date/Time
EST
Temp
°C
App
Temp
°C
Dew
Point
°C
Rel
Hum
%
Delta-T
°C
Wind Press
QNH
hPa
Press
MSL
hPa
Rain since
9am
mm
Dir  Spd
km/h
Gust
km/h
Spd
kts
Gust
kts
19/11:30pm 20.0 20.5 17.4 85 1.6 N 11 13 6 7 1021.2 1021.2 0.0
19/11:00pm 20.1 20.7 17.7 86 1.5 N 11 13 6 7 1021.3 1021.3 0.0
19/10:30pm 20.0 21.1 18.0 88 1.2 N 9 13 5 7 1021.4 1021.4 0.0
19/10:00pm 20.0 21.1 18.0 88 1.2 N 9 13 5 7 1021.4 1021.4 0.0
19/09:30pm 20.2 20.8 17.8 86 1.5 N 11 13 6 7 1021.5 1021.5 0.0
19/09:00pm 20.5 21.6 18.1 86 1.5 NNE 9 11 5 6 1021.6 1021.6 0.0
19/08:30pm 20.4 21.6 18.2 87 1.4 NNE 9 11 5 6 1021.5 1021.5 0.0
19/08:00pm 20.5 21.6 18.1 86 1.5 NNE 9 11 5 6 1021.3 1021.3 0.0
19/07:30pm 20.5 21.2 17.9 85 1.6 NNE 11 13 6 7 1021.0 1021.0 0.0
19/07:00pm 20.7 20.8 17.5 82 2.0 NNE 13 15 7 8 1020.7 1020.7 0.0
19/06:30pm 21.2 20.8 17.2 78 2.4 NNE 15 17 8 9 1020.4 1020.4 0.0
19/06:00pm 21.2 20.0 17.0 77 2.6 NNE 19 20 10 11 1020.1 1020.1 0.0
19/05:30pm 21.6 20.3 15.9 70 3.4 NE 17 17 9 9 1019.9 1019.8 0.0
19/05:00pm 21.8 21.0 16.1 70 3.4 NE 15 17 8 9 1019.6 1019.5 0.0
19/04:30pm 22.5 21.4 15.4 64 4.2 ENE 15 17 8 9 1019.4 1019.3 0.0
19/04:00pm 23.1 21.6 14.1 57 5.3 NE 15 17 8 9 1019.4 1019.3 0.0
19/03:30pm 23.6 21.9 13.5 53 5.9 NE 15 17 8 9 1019.5 1019.4 0.0
19/03:00pm 24.1 22.6 11.8 46 6.9 NE 11 13 6 7 1019.5 1019.4 0.0
19/02:30pm 24.8 23.0 12.1 45 7.3 NE 13 15 7 8 1019.8 1019.7 0.0
19/02:00pm 24.7 23.0 11.3 43 7.5 NE 11 13 6 7 1020.0 1019.9 0.0
19/01:30pm 24.3 23.3 12.3 47 6.9 ENE 9 11 5 6 1020.6 1020.6 0.0
19/01:00pm 24.4 23.5 12.7 48 6.7 ENE 9 11 5 6 1021.1 1021.1 0.0
19/12:30pm 24.3 23.5 12.9 49 6.6 E 9 11 5 6 1021.4 1021.4 0.0
19/12:00pm 24.5 23.2 12.5 47 6.9 E 11 11 6 6 1021.7 1021.7 0.0
19/11:30am 24.6 23.9 13.2 49 6.6 E 9 11 5 6 1022.0 1022.0 0.0
19/11:00am 24.1 23.1 13.3 51 6.3 E 11 13 6 7 1022.4 1022.4 0.0
19/10:30am 24.3 22.8 13.2 50 6.4 NNE 13 15 7 8 1022.5 1022.5 0.0
19/10:00am 23.5 22.8 13.1 52 6.0 ENE 9 9 5 5 1022.8 1022.8 0.0

Latest Capital City Observations: Canberra | Sydney | Melbourne | Brisbane | Adelaide | Perth | Hobart | Darwin

Other formats

Comma delimited format used in spreadsheet applications
http://www.bom.gov.au/fwo/IDQ60901/IDQ60901.95591.axf

JavaScript Object Notation format (JSON) in row-major order
http://www.bom.gov.au/fwo/IDQ60901/IDQ60901.95591.json

Data quality

Most of these data are generated automatically and are frequently updated. Quality checks on data are not normally performed. It is possible for incorrect values to appear. Refer to information at About Latest Weather Observations and please check the disclaimer before using these data.